createdAt,value
2023-01-22T00:00:11.857Z,299.40
2023-01-22T00:02:38.741Z,364.75
2023-01-22T00:05:06.686Z,535.92
2023-01-22T00:07:33.565Z,330.98
2023-01-22T00:10:00.437Z,241.70
2023-01-22T00:12:27.686Z,417.40
2023-01-22T00:14:54.601Z,420.45
2023-01-22T00:17:21.502Z,238.85
2023-01-22T00:19:48.300Z,694.65
2023-01-22T00:22:15.431Z,356.83
2023-01-22T00:24:42.258Z,464.80
2023-01-22T00:27:09.382Z,379.30
2023-01-22T00:29:36.128Z,249.88
2023-01-22T00:32:03.001Z,182.52
2023-01-22T00:34:30.145Z,138.68
2023-01-22T00:36:56.920Z,190.20
2023-01-22T00:39:23.712Z,204.65
2023-01-22T00:41:50.531Z,163.18
2023-01-22T00:44:17.332Z,180.77
2023-01-22T00:46:44.138Z,177.23
2023-01-22T00:49:12.435Z,165.13
2023-01-22T00:51:39.672Z,266.08
2023-01-22T00:54:06.929Z,151.73
2023-01-22T00:56:34.087Z,264.17
2023-01-22T00:59:00.910Z,239.98
2023-01-22T01:01:27.754Z,216.45
2023-01-22T01:03:54.534Z,280.58
2023-01-22T01:06:22.335Z,303.73
2023-01-22T01:08:50.313Z,311.15
2023-01-22T01:11:25.207Z,396.55
2023-01-22T01:13:52.798Z,181.70
2023-01-22T01:16:22.452Z,546.55
2023-01-22T01:18:49.690Z,301.48
2023-01-22T01:21:18.034Z,400.80
2023-01-22T01:23:45.856Z,384.25
2023-01-22T01:26:14.748Z,222.65
2023-01-22T01:28:42.516Z,284.33
2023-01-22T01:31:12.580Z,246.02
2023-01-22T01:33:40.391Z,139.98
2023-01-22T01:36:11.379Z,510.10
2023-01-22T01:38:38.201Z,339.48
2023-01-22T01:41:06.260Z,105.65
2023-01-22T01:43:34.359Z,209.98
2023-01-22T01:46:04.288Z,261.90
2023-01-22T01:48:39.040Z,143.55
2023-01-22T01:51:16.330Z,145.85
2023-01-22T01:53:45.536Z,136.52
2023-01-22T01:56:17.231Z,201.43
2023-01-22T01:58:46.120Z,121.57
2023-01-22T02:01:17.018Z,156.55
2023-01-22T02:03:45.986Z,81.57
2023-01-22T02:06:15.442Z,75.10
2023-01-22T02:08:45.572Z,91.47
2023-01-22T02:11:12.668Z,103.45
2023-01-22T02:13:44.323Z,93.65
2023-01-22T02:16:11.961Z,88.97
2023-01-22T02:18:39.005Z,74.93
2023-01-22T02:21:28.706Z,105.90
2023-01-22T02:23:55.671Z,76.57
2023-01-22T02:26:22.411Z,75.63
2023-01-22T02:28:49.300Z,68.60
2023-01-22T02:31:16.090Z,67.93
2023-01-22T02:33:42.891Z,68.75
2023-01-22T02:36:09.739Z,69.47
2023-01-22T02:38:36.498Z,69.60
2023-01-22T02:41:03.389Z,67.38
2023-01-22T02:43:30.163Z,81.70
2023-01-22T02:45:56.935Z,81.35
2023-01-22T02:48:23.712Z,61.25
2023-01-22T02:50:50.497Z,72.47
2023-01-22T02:53:17.278Z,61.92
2023-01-22T02:55:46.214Z,65.78
2023-01-22T02:58:13.170Z,60.45
2023-01-22T03:00:40.058Z,68.22
2023-01-22T03:03:07.830Z,62.58
2023-01-22T03:05:35.414Z,73.97
2023-01-22T03:08:02.349Z,58.20
2023-01-22T03:10:29.075Z,62.03
2023-01-22T03:13:14.341Z,64.13
2023-01-22T03:15:59.991Z,61.90
2023-01-22T03:18:45.217Z,58.65
2023-01-22T03:21:15.894Z,56.78
2023-01-22T03:23:53.912Z,55.20
2023-01-22T03:26:23.390Z,57.75
2023-01-22T03:28:51.289Z,57.75
2023-01-22T03:31:18.322Z,66.00
2023-01-22T03:33:45.153Z,52.67
2023-01-22T03:36:14.403Z,57.00
2023-01-22T03:38:41.414Z,64.35
2023-01-22T03:41:12.489Z,58.92
2023-01-22T03:43:39.453Z,55.75
2023-01-22T03:46:15.338Z,49.45
2023-01-22T03:51:16.715Z,46.05
2023-01-22T03:53:44.729Z,58.22
2023-01-22T03:56:14.752Z,48.47
2023-01-22T03:58:41.535Z,43.20
2023-01-22T04:01:12.058Z,45.70
2023-01-22T04:03:39.340Z,39.05
2023-01-22T04:06:09.057Z,44.72
2023-01-22T04:08:36.698Z,46.10
2023-01-22T04:11:04.300Z,39.17
2023-01-22T04:13:32.398Z,35.70
2023-01-22T04:15:59.280Z,39.63
2023-01-22T04:18:26.306Z,37.97
2023-01-22T04:20:53.621Z,38.00
2023-01-22T04:23:22.005Z,39.70
2023-01-22T04:25:48.861Z,31.90
2023-01-22T04:28:16.658Z,37.58
2023-01-22T04:30:45.598Z,35.90
2023-01-22T04:33:13.118Z,32.17
2023-01-22T04:35:40.132Z,35.17
2023-01-22T04:38:08.003Z,33.20
2023-01-22T04:40:34.813Z,32.70
2023-01-22T04:43:05.923Z,35.55
2023-01-22T04:45:32.759Z,37.35
2023-01-22T04:48:00.218Z,30.38
2023-01-22T04:50:30.366Z,29.73
2023-01-22T04:52:57.849Z,31.35
2023-01-22T04:55:25.941Z,28.42
2023-01-22T04:57:57.245Z,28.70
2023-01-22T05:00:24.885Z,32.13
2023-01-22T05:02:56.599Z,30.30
2023-01-22T05:05:23.623Z,26.85
2023-01-22T05:07:50.420Z,26.85
2023-01-22T05:10:17.621Z,31.40
2023-01-22T05:12:44.522Z,30.75
2023-01-22T05:15:23.234Z,31.75
2023-01-22T05:17:51.829Z,28.35
2023-01-22T05:20:18.985Z,29.23
2023-01-22T05:22:46.214Z,26.85
2023-01-22T05:25:13.129Z,31.25
2023-01-22T05:27:39.943Z,30.70
2023-01-22T05:30:07.544Z,34.53
2023-01-22T05:32:34.371Z,32.03
2023-01-22T05:35:01.663Z,34.58
2023-01-22T05:37:28.560Z,34.63
2023-01-22T05:39:55.318Z,32.20
2023-01-22T05:42:22.161Z,35.72
2023-01-22T05:44:49.103Z,33.63
2023-01-22T05:47:16.467Z,33.67
2023-01-22T05:49:43.238Z,29.95
2023-01-22T05:52:12.776Z,32.38
2023-01-22T05:54:39.939Z,29.08
2023-01-22T05:57:07.021Z,28.70
2023-01-22T05:59:33.922Z,29.55
2023-01-22T06:02:01.279Z,29.60
2023-01-22T06:04:28.247Z,29.33
2023-01-22T06:06:55.006Z,35.00
2023-01-22T06:09:21.935Z,31.27
2023-01-22T06:11:48.774Z,23.17
2023-01-22T06:14:15.590Z,26.20
2023-01-22T06:16:42.495Z,22.98
2023-01-22T06:19:09.554Z,25.63
2023-01-22T06:21:36.361Z,24.20
2023-01-22T06:24:03.208Z,28.23
2023-01-22T06:26:29.942Z,25.17
2023-01-22T06:28:56.770Z,25.00
2023-01-22T06:31:23.699Z,22.20
2023-01-22T06:33:50.551Z,29.65
2023-01-22T06:36:17.321Z,27.85
2023-01-22T06:38:44.099Z,27.02
2023-01-22T06:41:11.063Z,27.27
2023-01-22T06:43:37.875Z,27.35
2023-01-22T06:46:05.442Z,28.88
2023-01-22T06:48:32.648Z,32.13
2023-01-22T06:51:00.365Z,31.92
2023-01-22T06:53:27.611Z,31.02
2023-01-22T06:55:54.657Z,30.55
2023-01-22T06:58:21.605Z,31.65
2023-01-22T07:00:48.455Z,35.58
2023-01-22T07:03:15.999Z,42.13
2023-01-22T07:05:42.888Z,40.95
2023-01-22T07:08:15.186Z,37.13
2023-01-22T07:10:42.537Z,38.03
2023-01-22T07:13:10.284Z,38.35
2023-01-22T07:15:37.214Z,37.33
2023-01-22T07:18:04.107Z,40.78
2023-01-22T07:20:30.880Z,33.65
2023-01-22T07:23:00.180Z,37.42
2023-01-22T07:25:27.998Z,41.08
2023-01-22T07:28:02.747Z,38.60
2023-01-22T07:30:30.039Z,35.67
2023-01-22T07:33:03.051Z,36.63
2023-01-22T07:35:30.438Z,35.03
2023-01-22T07:37:59.964Z,37.05
2023-01-22T07:40:27.442Z,35.55
2023-01-22T07:42:55.681Z,33.83
2023-01-22T07:45:24.663Z,36.97
2023-01-22T07:47:54.614Z,38.25
2023-01-22T07:50:22.532Z,39.55
2023-01-22T07:52:49.572Z,42.97
2023-01-22T07:55:16.790Z,41.05
2023-01-22T07:57:43.614Z,47.00
2023-01-22T08:00:11.463Z,43.53
2023-01-22T08:02:38.750Z,46.75
2023-01-22T08:05:12.501Z,47.22
2023-01-22T08:07:39.282Z,48.15
2023-01-22T08:10:06.565Z,54.80
2023-01-22T08:12:33.437Z,72.95
2023-01-22T08:15:00.143Z,79.55
2023-01-22T08:17:26.947Z,99.53
2023-01-22T08:19:53.717Z,92.20
2023-01-22T08:22:20.752Z,112.15
2023-01-22T08:24:47.508Z,100.38
2023-01-22T08:27:14.322Z,105.13
2023-01-22T08:29:41.131Z,98.57
2023-01-22T08:32:07.981Z,113.05
2023-01-22T08:34:34.790Z,113.85
2023-01-22T08:37:01.601Z,108.43
2023-01-22T08:39:28.412Z,99.03
2023-01-22T08:41:57.737Z,102.63
2023-01-22T08:44:25.389Z,90.78
2023-01-22T08:46:52.388Z,96.88
2023-01-22T08:49:21.421Z,85.95
2023-01-22T08:51:50.362Z,85.75
2023-01-22T08:54:18.462Z,91.88
2023-01-22T08:56:45.221Z,87.60
2023-01-22T08:59:12.036Z,95.88
2023-01-22T09:01:38.769Z,90.53
2023-01-22T09:04:09.758Z,98.78
2023-01-22T09:06:38.194Z,87.07
2023-01-22T09:09:06.220Z,86.78
2023-01-22T09:11:33.386Z,76.72
2023-01-22T09:14:00.394Z,69.68
2023-01-22T09:16:28.194Z,54.60
2023-01-22T09:18:55.059Z,52.45
2023-01-22T09:21:21.883Z,56.55
2023-01-22T09:23:48.681Z,62.25
2023-01-22T09:26:15.712Z,60.20
2023-01-22T09:28:42.652Z,58.35
2023-01-22T09:31:13.281Z,61.08
2023-01-22T09:33:40.181Z,50.33
2023-01-22T09:36:15.019Z,54.85
2023-01-22T09:38:43.208Z,64.85
2023-01-22T09:41:34.187Z,59.85
2023-01-22T09:44:18.601Z,56.70
2023-01-22T09:47:01.284Z,55.58
2023-01-22T09:49:42.268Z,52.28
2023-01-22T09:52:11.048Z,51.08
2023-01-22T09:54:38.246Z,57.28
2023-01-22T09:57:07.328Z,47.55
2023-01-22T09:59:45.825Z,61.88
2023-01-22T10:02:21.633Z,57.67
2023-01-22T10:04:52.941Z,53.33
2023-01-22T10:07:49.201Z,56.25
2023-01-22T10:10:22.221Z,63.33
2023-01-22T10:12:55.963Z,55.45
2023-01-22T10:15:24.444Z,54.13
2023-01-22T10:17:54.109Z,54.63
2023-01-22T10:20:21.764Z,54.17
2023-01-22T10:22:51.562Z,43.83
2023-01-22T10:25:18.540Z,54.80
2023-01-22T10:27:46.967Z,57.20
2023-01-22T10:30:22.702Z,51.42
2023-01-22T10:33:00.227Z,59.42
2023-01-22T10:35:27.171Z,57.85
2023-01-22T10:37:55.967Z,73.35
2023-01-22T10:40:30.999Z,98.28
2023-01-22T10:43:03.325Z,82.03
2023-01-22T10:45:30.528Z,88.75
2023-01-22T10:48:16.710Z,84.70
2023-01-22T10:50:45.286Z,103.85
2023-01-22T10:53:30.170Z,91.32
2023-01-22T10:55:59.349Z,99.35
2023-01-22T10:58:33.228Z,98.13
2023-01-22T11:01:05.548Z,101.32
2023-01-22T11:03:38.182Z,112.70
2023-01-22T11:06:12.900Z,99.65
2023-01-22T11:08:56.535Z,105.97
2023-01-22T11:12:15.743Z,89.63
2023-01-22T11:14:42.988Z,77.68
2023-01-22T11:17:29.488Z,76.72
2023-01-22T11:23:06.992Z,53.17
2023-01-22T11:25:43.868Z,65.07
2023-01-22T11:28:44.112Z,67.30
2023-01-22T11:31:37.357Z,68.80
2023-01-22T11:34:10.262Z,59.63
2023-01-22T11:36:40.477Z,53.58
2023-01-22T11:39:45.752Z,40.85
2023-01-22T11:42:33.580Z,42.55
2023-01-22T11:45:23.199Z,43.47
2023-01-22T11:48:12.277Z,45.20
2023-01-22T11:50:59.186Z,57.50
2023-01-22T11:53:54.459Z,73.72
2023-01-22T11:56:39.299Z,72.82
2023-01-22T11:59:26.412Z,60.50
2023-01-22T12:02:24.470Z,68.57
2023-01-22T12:04:57.315Z,65.15
2023-01-22T12:07:26.985Z,62.50
2023-01-22T12:10:27.503Z,52.45
2023-01-22T12:13:23.507Z,81.72
2023-01-22T12:15:59.256Z,61.27
2023-01-22T12:18:48.014Z,56.90
2023-01-22T12:22:08.351Z,56.40
2023-01-22T12:24:44.666Z,43.58
2023-01-22T12:27:29.249Z,42.38
2023-01-22T12:30:30.122Z,40.80
2023-01-22T12:33:02.252Z,43.83
2023-01-22T12:35:31.668Z,41.28
2023-01-22T12:38:48.523Z,66.03
2023-01-22T12:41:46.774Z,54.35
2023-01-22T12:44:37.807Z,47.60
2023-01-22T12:47:19.365Z,54.95
2023-01-22T12:49:51.726Z,45.45
2023-01-22T12:52:35.350Z,47.33
2023-01-22T12:55:05.266Z,45.53
2023-01-22T12:57:41.859Z,40.65
2023-01-22T13:00:46.081Z,40.55
2023-01-22T13:03:33.004Z,43.10
2023-01-22T13:06:01.993Z,42.63
2023-01-22T13:08:43.229Z,53.70
2023-01-22T13:11:13.890Z,49.30
2023-01-22T13:13:52.200Z,52.67
2023-01-22T13:16:21.419Z,56.05
2023-01-22T13:18:53.398Z,49.30
2023-01-22T13:21:38.297Z,63.17
2023-01-22T13:24:17.432Z,51.15
2023-01-22T13:27:07.047Z,49.95
2023-01-22T13:29:37.876Z,93.05
2023-01-22T13:32:16.437Z,86.50
2023-01-22T13:34:43.275Z,62.60
2023-01-22T13:37:28.511Z,74.45
2023-01-22T13:39:55.293Z,71.40
2023-01-22T13:42:24.673Z,84.47
2023-01-22T13:44:52.276Z,74.90
2023-01-22T13:47:34.162Z,71.07
2023-01-22T13:50:02.574Z,93.80
2023-01-22T13:52:29.677Z,188.82
2023-01-22T13:55:05.709Z,82.20
2023-01-22T13:57:32.775Z,65.03
2023-01-22T14:00:01.369Z,116.28
2023-01-22T14:02:34.656Z,66.30
2023-01-22T14:05:02.135Z,104.40
2023-01-22T14:07:30.250Z,170.68
2023-01-22T14:09:59.043Z,95.38
2023-01-22T14:12:27.349Z,115.18
2023-01-22T14:14:54.595Z,194.35
2023-01-22T14:17:24.357Z,157.60
2023-01-22T14:19:51.580Z,149.48
2023-01-22T14:22:18.722Z,156.40
2023-01-22T14:24:45.591Z,100.45
2023-01-22T14:27:12.381Z,83.35
2023-01-22T14:29:39.372Z,183.50
2023-01-22T14:32:06.271Z,170.60
2023-01-22T14:34:33.064Z,128.07
2023-01-22T14:36:59.853Z,184.90
2023-01-22T14:39:26.696Z,93.22
2023-01-22T14:41:53.486Z,181.73
2023-01-22T14:44:20.380Z,216.77
2023-01-22T14:46:47.189Z,202.50
2023-01-22T14:49:14.049Z,343.90
2023-01-22T14:51:41.199Z,150.98
2023-01-22T14:56:52.263Z,202.32
2023-01-22T14:59:20.806Z,207.30
2023-01-22T15:01:47.851Z,162.23
2023-01-22T15:04:14.770Z,170.75
2023-01-22T15:06:41.771Z,105.07
2023-01-22T15:09:08.623Z,95.72
2023-01-22T15:11:35.403Z,83.53
2023-01-22T15:14:04.698Z,142.68
2023-01-22T15:16:32.853Z,119.82
2023-01-22T15:18:59.681Z,153.90
2023-01-22T15:21:26.550Z,194.98
2023-01-22T15:23:53.312Z,295.55
2023-01-22T15:26:24.901Z,106.28
2023-01-22T15:28:51.862Z,185.52
2023-01-22T15:31:18.937Z,368.95
2023-01-22T15:33:46.061Z,388.33
2023-01-22T15:36:12.867Z,369.00
2023-01-22T15:38:39.632Z,440.25
2023-01-22T15:41:28.038Z,480.65
2023-01-22T15:44:00.161Z,442.27
2023-01-22T15:46:32.208Z,396.33
2023-01-22T15:49:00.011Z,511.08
2023-01-22T15:51:28.260Z,327.35
2023-01-22T15:53:57.765Z,465.88
2023-01-22T15:56:26.893Z,552.03
2023-01-22T15:58:54.204Z,714.78
2023-01-22T16:01:22.503Z,459.67
2023-01-22T16:03:49.807Z,462.65
2023-01-22T16:06:19.303Z,541.95
2023-01-22T16:08:47.111Z,504.35
2023-01-22T16:11:15.199Z,448.10
2023-01-22T16:13:42.699Z,784.58
2023-01-22T16:16:33.603Z,643.35
2023-01-22T16:19:01.900Z,644.95
2023-01-22T16:21:29.280Z,482.48
2023-01-22T16:23:58.663Z,814.65
2023-01-22T16:26:30.809Z,1148.93
2023-01-22T16:28:59.635Z,649.85
2023-01-22T16:31:30.605Z,405.02
2023-01-22T16:33:59.977Z,633.58
2023-01-22T16:36:29.780Z,485.25
2023-01-22T16:38:56.673Z,694.10
2023-01-22T16:41:36.820Z,723.40
2023-01-22T16:44:16.469Z,524.40
2023-01-22T16:46:48.493Z,513.55
2023-01-22T16:49:18.932Z,490.05
2023-01-22T16:51:48.693Z,361.08
2023-01-22T16:54:29.954Z,424.60
2023-01-22T16:56:59.002Z,525.20
2023-01-22T16:59:27.312Z,410.65
2023-01-22T17:01:56.020Z,536.33
2023-01-22T17:04:23.199Z,282.15
2023-01-22T17:07:15.377Z,314.23
2023-01-22T17:09:47.593Z,459.70
2023-01-22T17:12:14.755Z,395.10
2023-01-22T17:14:41.664Z,574.45
2023-01-22T17:17:09.231Z,510.20
2023-01-22T17:19:36.616Z,392.48
2023-01-22T17:22:04.147Z,476.15
2023-01-22T17:24:31.842Z,395.88
2023-01-22T17:27:04.971Z,595.42
2023-01-22T17:29:33.655Z,548.88
2023-01-22T17:32:02.223Z,448.05
2023-01-22T17:34:29.286Z,598.65
2023-01-22T17:39:50.983Z,648.42
2023-01-22T17:42:18.686Z,495.05
2023-01-22T17:44:45.403Z,472.92
2023-01-22T17:47:12.713Z,580.25
2023-01-22T17:49:39.736Z,385.17
2023-01-22T17:52:09.247Z,560.80
2023-01-22T17:54:36.345Z,684.95
2023-01-22T17:57:05.088Z,504.90
2023-01-22T17:59:32.135Z,814.83
2023-01-22T18:02:00.004Z,534.15
2023-01-22T18:04:27.182Z,524.97
2023-01-22T18:06:54.186Z,524.55
2023-01-22T18:09:22.039Z,618.88
2023-01-22T18:11:49.083Z,433.23
2023-01-22T18:14:21.690Z,459.98
2023-01-22T18:17:14.114Z,491.75
2023-01-22T18:19:40.898Z,421.98
2023-01-22T18:22:07.918Z,435.95
2023-01-22T18:24:36.479Z,708.53
2023-01-22T18:27:03.327Z,534.25
2023-01-22T18:29:30.127Z,458.00
2023-01-22T18:31:56.998Z,481.23
2023-01-22T18:34:24.113Z,464.50
2023-01-22T18:36:51.026Z,679.30
2023-01-22T18:39:19.034Z,541.05
2023-01-22T18:41:47.632Z,616.38
2023-01-22T18:44:16.235Z,538.00
2023-01-22T18:46:47.565Z,392.73
2023-01-22T18:49:17.588Z,584.33
2023-01-22T18:51:45.794Z,533.25
2023-01-22T18:54:12.877Z,770.20
2023-01-22T18:56:40.347Z,680.60
2023-01-22T18:59:07.420Z,979.15
2023-01-22T19:01:38.264Z,673.42
2023-01-22T19:04:08.094Z,605.67
2023-01-22T19:06:38.575Z,766.22
2023-01-22T19:09:08.939Z,700.42
2023-01-22T19:11:38.466Z,499.38
2023-01-22T19:14:07.220Z,599.65
2023-01-22T19:16:34.165Z,471.20
2023-01-22T19:19:04.129Z,543.33
2023-01-22T19:21:31.525Z,560.70
2023-01-22T19:24:00.382Z,655.58
2023-01-22T19:26:33.677Z,512.38
2023-01-22T19:29:06.340Z,451.60
2023-01-22T19:31:36.097Z,628.90
2023-01-22T19:34:04.051Z,614.28
2023-01-22T19:36:33.635Z,613.53
2023-01-22T19:39:05.376Z,605.10
2023-01-22T19:41:32.653Z,422.52
2023-01-22T19:44:01.524Z,573.05
2023-01-22T19:46:28.889Z,716.40
2023-01-22T19:48:56.424Z,620.35
2023-01-22T19:51:24.652Z,602.50
2023-01-22T19:53:51.454Z,526.28
2023-01-22T19:56:21.224Z,445.63
2023-01-22T19:58:48.954Z,538.97
2023-01-22T20:01:16.747Z,436.92
2023-01-22T20:03:44.324Z,562.72
2023-01-22T20:06:13.367Z,251.30
2023-01-22T20:08:40.537Z,518.22
2023-01-22T20:11:09.219Z,369.98
2023-01-22T20:13:37.540Z,322.35
2023-01-22T20:16:05.264Z,532.53
2023-01-22T20:18:33.034Z,596.20
2023-01-22T20:21:01.800Z,852.63
2023-01-22T20:23:29.754Z,390.30
2023-01-22T20:25:58.788Z,232.55
2023-01-22T20:28:25.955Z,517.47
2023-01-22T20:31:01.143Z,421.85
2023-01-22T20:33:28.826Z,495.40
2023-01-22T20:35:57.681Z,291.95
2023-01-22T20:38:24.948Z,556.47
2023-01-22T20:40:52.175Z,598.78
2023-01-22T20:43:19.938Z,402.08
2023-01-22T20:46:01.028Z,573.92
2023-01-22T20:48:29.780Z,636.78
2023-01-22T20:50:57.088Z,556.95
2023-01-22T20:53:24.808Z,565.83
2023-01-22T20:56:03.113Z,516.45
2023-01-22T20:58:30.836Z,434.98
2023-01-22T21:01:07.733Z,817.90
2023-01-22T21:03:35.018Z,421.83
2023-01-22T21:06:04.350Z,326.23
2023-01-22T21:08:31.893Z,508.58
2023-01-22T21:11:00.373Z,158.93
2023-01-22T21:13:27.993Z,435.52
2023-01-22T21:15:55.299Z,402.92
2023-01-22T21:18:23.395Z,336.55
2023-01-22T21:20:50.399Z,508.83
2023-01-22T21:23:17.716Z,729.47
2023-01-22T21:25:44.680Z,569.08
2023-01-22T21:28:11.473Z,464.55
2023-01-22T21:30:39.490Z,632.08
2023-01-22T21:33:06.532Z,472.70
2023-01-22T21:35:33.414Z,553.45
2023-01-22T21:38:00.176Z,697.55
2023-01-22T21:40:26.920Z,583.60
2023-01-22T21:43:12.534Z,430.58
2023-01-22T21:46:01.358Z,381.60
2023-01-22T21:48:29.435Z,489.70
2023-01-22T21:50:56.233Z,350.90
2023-01-22T21:53:23.107Z,354.80
2023-01-22T21:55:53.901Z,595.95
2023-01-22T21:58:21.021Z,492.02
2023-01-22T22:00:48.002Z,175.20
2023-01-22T22:03:16.008Z,392.58
2023-01-22T22:05:43.088Z,338.20
2023-01-22T22:08:09.887Z,385.67
2023-01-22T22:10:36.777Z,435.30
2023-01-22T22:13:03.989Z,337.98
2023-01-22T22:15:30.828Z,310.38
2023-01-22T22:17:57.632Z,613.50
2023-01-22T22:20:24.420Z,461.02
2023-01-22T22:22:51.249Z,462.90
2023-01-22T22:25:18.165Z,353.98
2023-01-22T22:27:45.072Z,318.50
2023-01-22T22:30:12.471Z,377.40
2023-01-22T22:32:39.332Z,473.60
2023-01-22T22:35:06.555Z,368.02
2023-01-22T22:37:33.387Z,487.77
2023-01-22T22:40:00.143Z,366.40
2023-01-22T22:42:27.694Z,655.28
2023-01-22T22:44:54.470Z,544.13
2023-01-22T22:47:21.363Z,398.45
2023-01-22T22:49:48.143Z,304.13
2023-01-22T22:52:15.085Z,438.05
2023-01-22T22:54:41.946Z,396.92
2023-01-22T22:57:08.728Z,439.65
2023-01-22T22:59:35.473Z,182.82
2023-01-22T23:02:02.250Z,233.73
2023-01-22T23:04:29.117Z,301.48
2023-01-22T23:06:55.966Z,277.95
2023-01-22T23:09:22.888Z,251.50
2023-01-22T23:11:53.322Z,289.85
2023-01-22T23:14:20.280Z,552.63
2023-01-22T23:16:47.872Z,385.77
2023-01-22T23:19:26.797Z,238.73
2023-01-22T23:21:56.166Z,496.48
2023-01-22T23:24:23.035Z,442.02
2023-01-22T23:26:50.393Z,215.75
2023-01-22T23:29:20.305Z,638.03
2023-01-22T23:31:49.197Z,176.18
2023-01-22T23:34:18.063Z,249.07
2023-01-22T23:36:46.567Z,57.42
2023-01-22T23:39:15.553Z,109.65
2023-01-22T23:41:42.923Z,90.43
2023-01-22T23:44:10.002Z,91.50
2023-01-22T23:46:36.901Z,39.08
2023-01-22T23:49:04.594Z,25.20
2023-01-22T23:51:31.668Z,57.25
2023-01-22T23:53:58.623Z,51.55
2023-01-22T23:56:32.176Z,58.72
2023-01-22T23:58:59.733Z,45.28
